createdAt,value
2023-02-27T00:00:32.104Z,3.67
2023-02-27T00:03:25.027Z,2.85
2023-02-27T00:05:58.080Z,3.00
2023-02-27T00:08:30.878Z,2.97
2023-02-27T00:11:03.844Z,4.63
2023-02-27T00:13:36.782Z,3.58
2023-02-27T00:16:12.746Z,3.25
2023-02-27T00:18:45.478Z,3.00
2023-02-27T00:21:18.434Z,3.92
2023-02-27T00:23:51.956Z,2.20
2023-02-27T00:26:24.859Z,4.50
2023-02-27T00:29:00.574Z,3.72
2023-02-27T00:31:33.569Z,3.35
2023-02-27T00:34:06.178Z,2.58
2023-02-27T00:36:41.110Z,3.35
2023-02-27T00:39:14.859Z,3.60
2023-02-27T00:41:47.760Z,2.60
2023-02-27T00:44:20.452Z,3.30
2023-02-27T00:46:53.710Z,3.53
2023-02-27T00:49:26.527Z,2.05
2023-02-27T00:51:59.490Z,1.98
2023-02-27T00:54:32.236Z,2.42
2023-02-27T00:57:05.217Z,2.15
2023-02-27T00:59:37.795Z,2.88
2023-02-27T01:02:10.780Z,2.90
2023-02-27T01:04:43.616Z,2.15
2023-02-27T01:07:16.862Z,2.30
2023-02-27T01:09:49.340Z,2.40
2023-02-27T01:12:22.371Z,2.47
2023-02-27T01:14:55.057Z,1.38
2023-02-27T01:17:27.977Z,2.20
2023-02-27T01:20:00.667Z,2.08
2023-02-27T01:22:33.744Z,2.10
2023-02-27T01:25:07.123Z,2.33
2023-02-27T01:27:40.097Z,2.35
2023-02-27T01:30:12.967Z,1.77
2023-02-27T01:32:46.013Z,2.13
2023-02-27T01:35:19.110Z,1.45
2023-02-27T01:37:52.035Z,2.28
2023-02-27T01:40:24.602Z,1.65
2023-02-27T01:42:57.545Z,2.30
2023-02-27T01:45:40.017Z,2.13
2023-02-27T01:48:33.799Z,1.38
2023-02-27T01:51:12.492Z,1.75
2023-02-27T01:53:47.101Z,1.77
2023-02-27T01:56:27.858Z,1.85
2023-02-27T01:59:06.529Z,2.40
2023-02-27T02:01:39.645Z,2.08
2023-02-27T02:04:26.680Z,1.70
2023-02-27T02:07:01.611Z,1.60
2023-02-27T02:09:39.480Z,1.98
2023-02-27T02:12:14.089Z,1.63
2023-02-27T02:14:49.087Z,1.88
2023-02-27T02:17:29.957Z,1.70
2023-02-27T02:20:18.285Z,1.42
2023-02-27T02:23:03.079Z,2.30
2023-02-27T02:25:54.744Z,1.55
2023-02-27T02:28:46.976Z,1.80
2023-02-27T02:31:26.389Z,1.90
2023-02-27T02:34:05.227Z,1.60
2023-02-27T02:36:56.815Z,1.55
2023-02-27T02:39:33.337Z,1.20
2023-02-27T02:42:16.731Z,2.20
2023-02-27T02:44:58.262Z,1.70
2023-02-27T02:47:46.470Z,2.00
2023-02-27T02:50:27.496Z,1.50
2023-02-27T02:53:09.646Z,2.03
2023-02-27T02:56:00.670Z,1.58
2023-02-27T02:58:46.556Z,1.70
2023-02-27T03:01:32.509Z,1.90
2023-02-27T03:04:18.991Z,1.30
2023-02-27T03:07:04.228Z,0.95
2023-02-27T03:09:37.176Z,1.30
2023-02-27T03:12:12.259Z,1.65
2023-02-27T03:14:51.130Z,2.17
2023-02-27T03:17:46.912Z,1.42
2023-02-27T03:20:22.662Z,1.25
2023-02-27T03:22:57.309Z,1.20
2023-02-27T03:25:31.826Z,1.73
2023-02-27T03:28:07.318Z,1.40
2023-02-27T03:30:43.188Z,1.35
2023-02-27T03:33:21.398Z,1.88
2023-02-27T03:36:19.836Z,1.85
2023-02-27T03:38:56.866Z,1.60
2023-02-27T03:41:33.539Z,2.70
2023-02-27T03:44:35.874Z,0.98
2023-02-27T03:47:09.080Z,1.75
2023-02-27T03:49:41.680Z,1.40
2023-02-27T03:52:14.669Z,1.50
2023-02-27T03:55:10.532Z,1.73
2023-02-27T03:57:44.259Z,1.67
2023-02-27T04:00:19.025Z,1.88
2023-02-27T04:02:53.605Z,2.35
2023-02-27T04:05:30.053Z,1.77
2023-02-27T04:08:28.325Z,2.17
2023-02-27T04:11:00.872Z,1.90
2023-02-27T04:13:36.685Z,1.23
2023-02-27T04:16:20.280Z,1.60
2023-02-27T04:19:04.665Z,2.10
2023-02-27T04:21:37.208Z,2.38
2023-02-27T04:24:25.598Z,2.03
2023-02-27T04:27:13.494Z,1.70
2023-02-27T04:29:54.534Z,1.80
2023-02-27T04:32:38.705Z,2.45
2023-02-27T04:35:32.560Z,2.55
2023-02-27T04:38:10.894Z,2.30
2023-02-27T04:40:46.544Z,2.58
2023-02-27T04:43:20.763Z,2.83
2023-02-27T04:45:55.986Z,2.20
2023-02-27T04:48:39.030Z,2.58
2023-02-27T04:51:17.067Z,2.63
2023-02-27T04:53:59.376Z,2.85
2023-02-27T04:56:35.706Z,2.53
2023-02-27T04:59:28.539Z,2.45
2023-02-27T05:02:14.975Z,2.90
2023-02-27T05:04:48.888Z,2.88
2023-02-27T05:07:25.752Z,2.47
2023-02-27T05:10:03.902Z,2.03
2023-02-27T05:12:41.727Z,3.38
2023-02-27T05:15:34.431Z,2.50
2023-02-27T05:18:09.171Z,4.05
2023-02-27T05:20:47.850Z,2.35
2023-02-27T05:23:37.157Z,3.03
2023-02-27T05:26:17.777Z,2.72
2023-02-27T05:28:55.988Z,2.22
2023-02-27T05:31:37.782Z,2.45
2023-02-27T05:34:14.511Z,2.28
2023-02-27T05:36:52.592Z,3.25
2023-02-27T05:39:28.015Z,3.50
2023-02-27T05:42:06.531Z,2.17
2023-02-27T05:44:43.102Z,2.13
2023-02-27T05:47:18.535Z,2.25
2023-02-27T05:49:56.943Z,2.83
2023-02-27T05:52:30.592Z,2.50
2023-02-27T05:55:09.543Z,1.65
2023-02-27T05:57:45.699Z,2.58
2023-02-27T06:00:24.196Z,2.40
2023-02-27T06:02:56.688Z,2.13
2023-02-27T06:05:31.518Z,2.45
2023-02-27T06:08:04.185Z,3.10
2023-02-27T06:10:37.429Z,2.55
2023-02-27T06:13:09.996Z,3.47
2023-02-27T06:15:43.384Z,2.88
2023-02-27T06:18:16.564Z,3.03
2023-02-27T06:20:49.820Z,3.42
2023-02-27T06:23:22.692Z,2.95
2023-02-27T06:25:55.660Z,3.35
2023-02-27T06:28:28.211Z,5.28
2023-02-27T06:31:01.178Z,4.75
2023-02-27T06:33:34.470Z,4.50
2023-02-27T06:36:07.570Z,11.95
2023-02-27T06:38:40.727Z,9.45
2023-02-27T06:41:13.703Z,7.97
2023-02-27T06:43:46.403Z,15.55
2023-02-27T06:46:19.464Z,11.70
2023-02-27T06:48:52.060Z,7.43
2023-02-27T06:51:24.950Z,11.80
2023-02-27T06:53:57.898Z,8.65
2023-02-27T06:56:30.932Z,4.00
2023-02-27T06:59:03.471Z,3.92
2023-02-27T07:01:36.378Z,4.15
2023-02-27T07:04:09.456Z,5.72
2023-02-27T07:07:33.292Z,4.10
2023-02-27T07:09:36.349Z,4.25
2023-02-27T07:12:09.350Z,4.95
2023-02-27T07:14:41.957Z,4.38
2023-02-27T07:17:14.931Z,6.38
2023-02-27T07:19:47.449Z,8.25
2023-02-27T07:22:20.343Z,11.65
2023-02-27T07:24:53.278Z,21.10
2023-02-27T07:27:26.228Z,22.02
2023-02-27T07:29:58.848Z,15.27
2023-02-27T07:32:31.932Z,11.80
2023-02-27T07:35:04.778Z,7.13
2023-02-27T07:37:38.027Z,6.47
2023-02-27T07:40:10.935Z,7.95
2023-02-27T07:42:43.899Z,4.68
2023-02-27T07:45:18.759Z,4.18
2023-02-27T07:47:51.796Z,5.35
2023-02-27T07:50:24.430Z,5.00
2023-02-27T07:52:57.358Z,3.90
2023-02-27T07:55:29.945Z,3.25
2023-02-27T07:58:02.838Z,3.05
2023-02-27T08:00:35.459Z,3.65
2023-02-27T08:03:08.411Z,3.92
2023-02-27T08:05:41.172Z,3.05
2023-02-27T08:08:14.118Z,4.53
2023-02-27T08:10:47.197Z,3.78
2023-02-27T08:13:25.178Z,5.95
2023-02-27T08:16:08.664Z,4.18
2023-02-27T08:18:41.770Z,3.47
2023-02-27T08:21:14.396Z,7.57
2023-02-27T08:23:47.285Z,3.42
2023-02-27T08:26:19.824Z,3.42
2023-02-27T08:28:52.830Z,4.10
2023-02-27T08:31:25.488Z,4.25
2023-02-27T08:34:09.394Z,3.90
2023-02-27T08:36:43.087Z,3.00
2023-02-27T08:39:15.978Z,3.03
2023-02-27T08:41:48.866Z,3.58
2023-02-27T08:44:21.900Z,3.40
2023-02-27T08:46:54.463Z,4.03
2023-02-27T08:49:27.306Z,2.80
2023-02-27T08:51:59.878Z,5.53
2023-02-27T08:54:32.891Z,3.22
2023-02-27T08:57:05.746Z,3.25
2023-02-27T08:59:39.113Z,3.88
2023-02-27T09:02:12.025Z,3.35
2023-02-27T09:04:44.991Z,3.55
2023-02-27T09:07:17.722Z,3.30
2023-02-27T09:09:50.927Z,4.10
2023-02-27T09:12:23.523Z,4.03
2023-02-27T09:14:56.566Z,4.88
2023-02-27T09:17:30.420Z,3.88
2023-02-27T09:20:05.136Z,11.45
2023-02-27T09:22:37.697Z,4.53
2023-02-27T09:25:10.583Z,3.45
2023-02-27T09:27:43.150Z,3.28
2023-02-27T09:30:16.106Z,3.78
2023-02-27T09:32:48.754Z,3.97
2023-02-27T09:35:21.996Z,3.45
2023-02-27T09:37:54.491Z,4.38
2023-02-27T09:40:31.638Z,3.63
2023-02-27T09:43:10.006Z,3.33
2023-02-27T09:45:43.759Z,3.47
2023-02-27T09:48:24.498Z,4.00
2023-02-27T09:50:57.871Z,5.35
2023-02-27T09:53:32.420Z,3.55
2023-02-27T09:56:10.298Z,3.42
2023-02-27T09:59:21.223Z,3.35
2023-02-27T10:01:54.094Z,4.90
2023-02-27T10:04:38.771Z,5.55
2023-02-27T10:07:20.644Z,3.17
2023-02-27T10:09:59.667Z,4.40
2023-02-27T10:12:46.286Z,3.20
2023-02-27T10:15:25.781Z,3.15
2023-02-27T10:18:16.693Z,2.92
2023-02-27T10:20:58.333Z,2.88
2023-02-27T10:23:31.191Z,6.20
2023-02-27T10:26:04.389Z,3.78
2023-02-27T10:28:37.339Z,3.00
2023-02-27T10:31:16.313Z,4.55
2023-02-27T10:33:49.722Z,4.38
2023-02-27T10:36:33.568Z,3.92
2023-02-27T10:39:09.233Z,3.95
2023-02-27T10:41:42.884Z,3.85
2023-02-27T10:44:16.989Z,3.28
2023-02-27T10:46:51.916Z,3.15
2023-02-27T10:49:25.327Z,2.00
2023-02-27T10:52:14.516Z,2.38
2023-02-27T10:54:47.875Z,1.98
2023-02-27T10:57:20.437Z,2.78
2023-02-27T11:00:07.364Z,2.75
2023-02-27T11:02:41.385Z,2.10
2023-02-27T11:05:25.801Z,2.70
2023-02-27T11:08:11.877Z,2.63
2023-02-27T11:10:55.544Z,2.85
2023-02-27T11:13:29.912Z,2.10
2023-02-27T11:16:08.019Z,2.90
2023-02-27T11:18:41.692Z,2.47
2023-02-27T11:21:18.322Z,2.53
2023-02-27T11:23:58.747Z,1.98
2023-02-27T11:26:36.677Z,2.38
2023-02-27T11:29:09.244Z,3.67
2023-02-27T11:31:52.078Z,3.33
2023-02-27T11:34:39.089Z,3.72
2023-02-27T11:37:30.611Z,3.70
2023-02-27T11:40:13.603Z,2.80
2023-02-27T11:42:49.530Z,2.85
2023-02-27T11:46:04.880Z,2.40
2023-02-27T11:48:23.711Z,2.72
2023-02-27T11:51:01.284Z,3.80
2023-02-27T11:53:54.389Z,2.17
2023-02-27T11:56:47.217Z,2.15
2023-02-27T11:59:20.074Z,2.40
2023-02-27T12:01:59.828Z,2.92
2023-02-27T12:04:41.007Z,2.33
2023-02-27T12:07:19.641Z,2.07
2023-02-27T12:10:08.073Z,1.42
2023-02-27T12:12:47.354Z,1.90
2023-02-27T12:15:20.334Z,2.67
2023-02-27T12:17:57.876Z,2.42
2023-02-27T12:20:40.222Z,2.95
2023-02-27T12:25:46.760Z,2.28
2023-02-27T12:28:24.266Z,1.98
2023-02-27T12:31:09.033Z,2.03
2023-02-27T12:33:41.606Z,2.10
2023-02-27T12:36:15.113Z,1.63
2023-02-27T12:38:47.827Z,1.88
2023-02-27T12:41:44.171Z,1.25
2023-02-27T12:44:16.711Z,1.58
2023-02-27T12:46:56.959Z,1.85
2023-02-27T12:49:41.824Z,1.40
2023-02-27T12:52:45.269Z,2.95
2023-02-27T12:55:27.790Z,1.58
2023-02-27T12:58:12.526Z,1.67
2023-02-27T13:00:53.158Z,1.42
2023-02-27T13:03:31.886Z,1.35
2023-02-27T13:06:13.368Z,2.03
2023-02-27T13:11:30.573Z,1.38
2023-02-27T13:14:08.032Z,1.23
2023-02-27T13:16:44.885Z,1.20
2023-02-27T13:19:20.729Z,0.98
2023-02-27T13:21:55.909Z,1.27
2023-02-27T13:24:30.247Z,1.27
2023-02-27T13:27:05.369Z,1.15
2023-02-27T13:29:47.842Z,1.08
2023-02-27T13:32:42.857Z,1.55
2023-02-27T13:35:23.379Z,1.65
2023-02-27T13:37:58.094Z,1.30
2023-02-27T13:40:33.375Z,1.88
2023-02-27T13:43:24.713Z,1.88
2023-02-27T13:45:59.317Z,1.80
2023-02-27T13:48:34.688Z,1.92
2023-02-27T13:51:30.593Z,2.13
2023-02-27T13:54:09.964Z,1.90
2023-02-27T13:56:48.606Z,2.05
2023-02-27T13:59:21.104Z,1.88
2023-02-27T14:01:56.474Z,2.90
2023-02-27T14:04:31.155Z,3.03
2023-02-27T14:07:06.915Z,9.60
2023-02-27T14:09:41.470Z,3.08
2023-02-27T14:12:43.941Z,2.85
2023-02-27T14:15:18.025Z,2.75
2023-02-27T14:18:02.427Z,6.72
2023-02-27T14:20:41.134Z,12.35
2023-02-27T14:23:17.349Z,15.68
2023-02-27T14:25:54.230Z,13.57
2023-02-27T14:28:30.661Z,10.35
2023-02-27T14:31:06.332Z,7.50
2023-02-27T14:33:42.558Z,2.65
2023-02-27T14:36:20.370Z,3.47
2023-02-27T14:38:57.856Z,2.75
2023-02-27T14:41:38.942Z,3.70
2023-02-27T14:44:22.272Z,5.65
2023-02-27T14:46:55.683Z,3.53
2023-02-27T14:49:29.913Z,4.93
2023-02-27T14:52:12.755Z,4.82
2023-02-27T14:54:45.697Z,5.20
2023-02-27T14:57:18.463Z,2.95
2023-02-27T14:59:52.701Z,3.50
2023-02-27T15:02:29.074Z,3.15
2023-02-27T15:05:02.022Z,5.90
2023-02-27T15:07:35.725Z,4.65
2023-02-27T15:10:10.045Z,3.13
2023-02-27T15:12:42.791Z,3.35
2023-02-27T15:15:18.659Z,2.58
2023-02-27T15:17:53.086Z,2.70
2023-02-27T15:20:33.810Z,3.22
2023-02-27T15:23:26.419Z,2.78
2023-02-27T15:25:59.950Z,2.65
2023-02-27T15:28:39.359Z,1.73
2023-02-27T15:31:14.442Z,2.08
2023-02-27T15:33:47.993Z,2.25
2023-02-27T15:36:34.257Z,2.95
2023-02-27T15:39:06.713Z,2.15
2023-02-27T15:41:39.663Z,2.35
2023-02-27T15:44:13.640Z,2.33
2023-02-27T15:46:47.022Z,3.75
2023-02-27T15:49:20.652Z,5.30
2023-02-27T15:52:01.202Z,4.47
2023-02-27T15:54:34.829Z,5.45
2023-02-27T15:57:08.019Z,3.72
2023-02-27T15:59:42.562Z,4.57
2023-02-27T16:02:18.101Z,4.40
2023-02-27T16:04:50.878Z,3.67
2023-02-27T16:07:25.199Z,4.28
2023-02-27T16:10:01.668Z,4.93
2023-02-27T16:12:37.189Z,5.63
2023-02-27T16:15:24.856Z,7.75
2023-02-27T16:17:57.675Z,5.32
2023-02-27T16:20:33.040Z,4.63
2023-02-27T16:23:09.021Z,4.85
2023-02-27T16:25:41.940Z,5.28
2023-02-27T16:28:15.331Z,4.45
2023-02-27T16:30:53.264Z,5.75
2023-02-27T16:33:27.896Z,7.68
2023-02-27T16:36:15.348Z,6.93
2023-02-27T16:38:48.598Z,7.50
2023-02-27T16:41:22.306Z,3.65
2023-02-27T16:43:55.621Z,4.65
2023-02-27T16:46:28.415Z,4.10
2023-02-27T16:49:17.648Z,4.78
2023-02-27T16:51:52.199Z,5.13
2023-02-27T16:54:26.135Z,11.88
2023-02-27T16:56:58.674Z,6.25
2023-02-27T16:59:36.405Z,15.90
2023-02-27T17:02:13.551Z,7.20
2023-02-27T17:04:48.322Z,3.65
2023-02-27T17:07:20.968Z,6.63
2023-02-27T17:09:53.945Z,6.72
2023-02-27T17:12:26.571Z,5.65
2023-02-27T17:14:59.718Z,6.68
2023-02-27T17:17:32.260Z,5.18
2023-02-27T17:20:07.541Z,6.00
2023-02-27T17:22:41.998Z,7.95
2023-02-27T17:25:14.992Z,6.40
2023-02-27T17:27:48.104Z,6.43
2023-02-27T17:30:21.064Z,5.22
2023-02-27T17:32:53.659Z,6.00
2023-02-27T17:35:27.086Z,6.82
2023-02-27T17:38:02.752Z,6.47
2023-02-27T17:40:39.640Z,7.28
2023-02-27T17:43:12.200Z,5.40
2023-02-27T17:45:45.152Z,5.35
2023-02-27T17:48:17.662Z,5.57
2023-02-27T17:50:50.661Z,5.30
2023-02-27T17:53:23.206Z,4.40
2023-02-27T17:55:56.111Z,4.45
2023-02-27T17:58:28.697Z,3.50
2023-02-27T18:01:09.469Z,4.25
2023-02-27T18:03:42.091Z,4.30
2023-02-27T18:06:15.517Z,3.97
2023-02-27T18:08:48.417Z,3.22
2023-02-27T18:11:21.905Z,3.22
2023-02-27T18:13:54.517Z,2.88
2023-02-27T18:16:27.805Z,3.33
2023-02-27T18:19:02.327Z,3.78
2023-02-27T18:21:36.290Z,2.67
2023-02-27T18:24:09.617Z,3.28
2023-02-27T18:26:43.144Z,2.50
2023-02-27T18:29:16.553Z,3.08
2023-02-27T18:31:54.325Z,3.45
2023-02-27T18:34:26.918Z,2.63
2023-02-27T18:37:00.103Z,3.20
2023-02-27T18:39:32.660Z,2.75
2023-02-27T18:42:06.856Z,2.72
2023-02-27T18:44:41.649Z,3.72
2023-02-27T18:47:14.600Z,3.83
2023-02-27T18:49:47.165Z,3.28
2023-02-27T18:52:20.126Z,3.65
2023-02-27T18:54:52.730Z,2.92
2023-02-27T18:57:25.609Z,3.65
2023-02-27T18:59:58.150Z,3.25
2023-02-27T19:02:31.216Z,3.80
2023-02-27T19:05:03.920Z,3.28
2023-02-27T19:07:37.247Z,3.22
2023-02-27T19:10:10.400Z,3.33
2023-02-27T19:12:43.695Z,3.03
2023-02-27T19:15:16.409Z,3.20
2023-02-27T19:17:49.365Z,3.88
2023-02-27T19:20:21.923Z,3.05
2023-02-27T19:22:54.832Z,3.03
2023-02-27T19:25:27.474Z,3.75
2023-02-27T19:28:01.391Z,3.45
2023-02-27T19:30:33.968Z,3.80
2023-02-27T19:33:07.427Z,3.25
2023-02-27T19:35:42.021Z,3.90
2023-02-27T19:38:16.556Z,4.90
2023-02-27T19:40:49.062Z,3.83
2023-02-27T19:43:21.993Z,2.78
2023-02-27T19:45:54.532Z,3.30
2023-02-27T19:48:27.470Z,3.20
2023-02-27T19:51:03.654Z,3.20
2023-02-27T19:53:37.888Z,3.97
2023-02-27T19:56:12.799Z,3.80
2023-02-27T19:58:46.415Z,3.55
2023-02-27T20:01:23.288Z,4.35
2023-02-27T20:03:56.580Z,4.45
2023-02-27T20:06:30.703Z,4.25
2023-02-27T20:09:03.807Z,4.63
2023-02-27T20:11:36.654Z,4.75
2023-02-27T20:14:09.878Z,3.55
2023-02-27T20:16:42.985Z,4.30
2023-02-27T20:19:17.145Z,4.95
2023-02-27T20:21:50.996Z,4.38
2023-02-27T20:24:24.893Z,4.28
2023-02-27T20:26:59.256Z,4.85
2023-02-27T20:29:32.363Z,4.32
2023-02-27T20:32:05.166Z,3.90
2023-02-27T20:34:38.379Z,4.07
2023-02-27T20:37:10.930Z,5.03
2023-02-27T20:39:45.501Z,4.80
2023-02-27T20:42:18.097Z,4.63
2023-02-27T20:44:51.051Z,4.30
2023-02-27T20:47:23.642Z,5.22
2023-02-27T20:49:56.688Z,5.78
2023-02-27T20:52:29.484Z,4.50
2023-02-27T20:55:02.804Z,5.10
2023-02-27T20:57:35.372Z,6.35
2023-02-27T21:00:12.489Z,5.22
2023-02-27T21:02:45.647Z,5.78
2023-02-27T21:05:19.026Z,6.78
2023-02-27T21:07:52.016Z,6.35
2023-02-27T21:10:24.992Z,6.82
2023-02-27T21:12:57.544Z,6.28
2023-02-27T21:15:31.558Z,6.50
2023-02-27T21:18:04.923Z,7.05
2023-02-27T21:20:39.788Z,6.88
2023-02-27T21:23:12.418Z,11.80
2023-02-27T21:25:45.317Z,10.30
2023-02-27T21:28:18.191Z,10.80
2023-02-27T21:30:54.997Z,9.90
2023-02-27T21:33:28.181Z,9.98
2023-02-27T21:36:01.144Z,10.00
2023-02-27T21:38:33.819Z,12.43
2023-02-27T21:41:09.873Z,11.80
2023-02-27T21:43:44.052Z,11.70
2023-02-27T21:46:17.008Z,13.52
2023-02-27T21:48:49.547Z,9.95
2023-02-27T21:51:38.329Z,9.93
2023-02-27T21:54:12.322Z,9.13
2023-02-27T21:56:45.864Z,7.63
2023-02-27T21:59:19.550Z,6.93
2023-02-27T22:01:52.574Z,6.85
2023-02-27T22:04:25.508Z,7.95
2023-02-27T22:06:58.369Z,7.88
2023-02-27T22:09:30.947Z,7.25
2023-02-27T22:12:04.193Z,7.70
2023-02-27T22:14:36.834Z,9.07
2023-02-27T22:17:10.079Z,9.80
2023-02-27T22:19:42.709Z,7.45
2023-02-27T22:22:15.712Z,8.05
2023-02-27T22:24:48.236Z,6.90
2023-02-27T22:27:21.227Z,8.48
2023-02-27T22:29:53.845Z,8.50
2023-02-27T22:32:26.776Z,7.82
2023-02-27T22:35:02.775Z,8.98
2023-02-27T22:37:35.818Z,8.52
2023-02-27T22:40:08.618Z,8.02
2023-02-27T22:42:41.539Z,8.57
2023-02-27T22:45:14.649Z,7.32
2023-02-27T22:47:47.515Z,7.13
2023-02-27T22:50:21.975Z,8.65
2023-02-27T22:52:54.817Z,9.15
2023-02-27T22:55:27.470Z,8.80
2023-02-27T22:58:00.435Z,9.15
2023-02-27T23:00:33.853Z,8.68
2023-02-27T23:03:06.801Z,8.82
2023-02-27T23:05:46.394Z,7.57
2023-02-27T23:08:19.348Z,9.02
2023-02-27T23:10:52.288Z,8.73
2023-02-27T23:13:25.425Z,7.82
2023-02-27T23:15:58.575Z,10.50
2023-02-27T23:18:31.517Z,7.75
2023-02-27T23:21:04.274Z,7.82
2023-02-27T23:23:37.436Z,6.35
2023-02-27T23:26:10.064Z,6.88
2023-02-27T23:28:43.098Z,8.93
2023-02-27T23:31:15.645Z,8.35
2023-02-27T23:33:48.631Z,7.78
2023-02-27T23:36:21.480Z,7.65
2023-02-27T23:38:54.354Z,7.03
2023-02-27T23:41:28.190Z,8.00
2023-02-27T23:44:01.986Z,7.63
2023-02-27T23:46:34.553Z,6.28
2023-02-27T23:49:07.511Z,7.35
2023-02-27T23:51:40.403Z,6.38
2023-02-27T23:54:14.778Z,6.97
2023-02-27T23:56:47.882Z,7.88
2023-02-27T23:59:20.756Z,5.82
